Time;durP1;ratioP1;P1;durP2;ratioP2;P2;SDS_P1;SDS_P2;PMS_P1;PMS_P2;Temp;Humidity;BMP_temperature;BMP_pressure;BME280_temperature;BME280_humidity;BME280_pressure;Samples;Min_cycle;Max_cycle;Signal;HPM_P1;HPM_P2
2023/01/25 05:01:23;;;;;;;18.55;13.00;;;4.00;99.90;;;;;;5390082;23;20045;-74
2023/01/25 05:03:52;;;;;;;15.95;11.68;;;4.00;99.90;;;;;;4840115;29;20050;-73
2023/01/25 05:06:36;;;;;;;16.17;12.40;;;4.00;99.90;;;;;;4865528;29;20045;-73
2023/01/25 05:09:03;;;;;;;18.27;13.10;;;4.00;99.90;;;;;;4840402;29;20061;-74
2023/01/25 05:11:32;;;;;;;17.45;11.98;;;4.00;99.90;;;;;;4861285;29;20053;-73
2023/01/25 05:14:09;;;;;;;16.58;12.55;;;3.90;99.90;;;;;;4851060;29;20067;-73
2023/01/25 05:16:37;;;;;;;18.33;13.20;;;4.00;99.90;;;;;;4857077;29;20434;-73
2023/01/25 05:19:11;;;;;;;16.25;11.70;;;3.90;99.90;;;;;;4853414;29;20131;-73
2023/01/25 05:21:59;;;;;;;17.40;11.63;;;3.90;99.90;;;;;;4858311;29;20519;-73
2023/01/25 05:24:35;;;;;;;18.25;13.15;;;3.80;99.90;;;;;;4825197;29;20098;-73
2023/01/25 05:27:06;;;;;;;15.75;11.30;;;3.80;99.90;;;;;;4841980;29;20417;-73
2023/01/25 05:29:52;;;;;;;15.82;12.23;;;3.80;99.90;;;;;;4850675;29;20140;-71
2023/01/25 05:32:23;;;;;;;14.95;10.57;;;3.80;99.90;;;;;;4841361;29;20137;-72
2023/01/25 05:34:50;;;;;;;16.00;10.85;;;3.70;99.90;;;;;;4837037;29;20668;-72
2023/01/25 05:37:20;;;;;;;14.70;10.52;;;3.70;99.90;;;;;;4824991;29;20848;-72
2023/01/25 05:39:53;;;;;;;15.20;10.05;;;4.20;99.90;;;;;;4840169;29;20049;-72
2023/01/25 05:42:20;;;;;;;15.73;10.60;;;3.80;99.90;;;;;;4855361;29;20077;-71
2023/01/25 05:44:47;;;;;;;15.30;10.98;;;3.80;99.90;;;;;;4834389;29;20117;-73
2023/01/25 05:47:16;;;;;;;16.42;11.40;;;3.80;99.90;;;;;;4848617;29;20066;-73
2023/01/25 05:49:47;;;;;;;13.70;10.48;;;3.90;99.90;;;;;;4824846;29;20446;-72
2023/01/25 05:52:21;;;;;;;16.70;10.10;;;3.70;99.90;;;;;;4854541;29;20068;-72
2023/01/25 05:54:48;;;;;;;13.90;11.10;;;3.70;99.90;;;;;;4840725;29;20691;-73
2023/01/25 05:57:16;;;;;;;16.67;11.95;;;3.60;99.90;;;;;;4833314;29;20065;-73
2023/01/25 05:59:44;;;;;;;17.52;11.48;;;3.70;99.90;;;;;;4842257;29;20057;-72
2023/01/25 06:02:17;;;;;;;15.88;12.23;;;3.80;99.90;;;;;;4856029;29;20140;-72
2023/01/25 06:04:45;;;;;;;16.63;11.68;;;3.80;99.90;;;;;;4856149;29;20558;-72
2023/01/25 06:07:12;;;;;;;17.35;11.80;;;5.20;99.90;;;;;;4840498;29;20073;-73
2023/01/25 06:09:40;;;;;;;16.38;10.75;;;3.70;99.90;;;;;;4841139;29;20549;-73
2023/01/25 06:12:07;;;;;;;16.50;11.18;;;3.80;99.90;;;;;;4847590;29;20056;-72
2023/01/25 06:14:34;;;;;;;13.57;9.68;;;4.60;99.90;;;;;;4865011;29;20112;-73
2023/01/25 06:17:03;;;;;;;16.77;13.05;;;5.30;99.90;;;;;;4845499;29;20149;-73
2023/01/25 06:19:48;;;;;;;17.67;12.07;;;3.60;99.90;;;;;;4862815;29;20563;-72
2023/01/25 06:22:22;;;;;;;14.50;10.73;;;3.60;99.90;;;;;;4848078;29;20045;-72
2023/01/25 06:24:49;;;;;;;15.73;10.48;;;3.70;99.90;;;;;;4858847;29;20081;-72
2023/01/25 06:27:15;;;;;;;14.55;11.13;;;3.70;99.90;;;;;;4841362;29;20063;-72
2023/01/25 06:29:42;;;;;;;14.77;10.45;;;3.70;99.90;;;;;;4841101;29;20148;-73
2023/01/25 06:32:09;;;;;;;16.38;10.85;;;3.70;99.90;;;;;;4842795;29;20526;-73
2023/01/25 06:34:36;;;;;;;15.70;10.60;;;3.70;99.90;;;;;;4841376;29;20085;-72
2023/01/25 06:37:03;;;;;;;18.75;12.93;;;3.70;99.90;;;;;;4841409;29;20056;-72
2023/01/25 06:39:30;;;;;;;16.52;10.55;;;3.80;99.90;;;;;;4856449;29;20049;-73
2023/01/25 06:41:58;;;;;;;15.13;9.73;;;3.80;99.90;;;;;;4868668;29;20060;-73
2023/01/25 06:44:24;;;;;;;15.70;10.18;;;3.80;99.90;;;;;;4860728;29;20087;-73
2023/01/25 06:46:51;;;;;;;16.33;11.63;;;3.80;99.90;;;;;;4857426;29;20132;-73
2023/01/25 06:49:18;;;;;;;14.77;10.07;;;3.90;99.90;;;;;;4856746;29;20060;-72
2023/01/25 06:51:45;;;;;;;15.35;11.40;;;5.30;99.90;;;;;;4866238;29;20053;-73
2023/01/25 06:54:13;;;;;;;16.35;10.70;;;3.70;99.90;;;;;;4875952;29;20113;-73
2023/01/25 06:56:40;;;;;;;15.75;10.30;;;3.70;99.90;;;;;;4859470;29;20053;-73
2023/01/25 06:59:07;;;;;;;16.48;11.00;;;3.70;99.90;;;;;;4856828;29;20046;-72
2023/01/25 07:01:36;;;;;;;17.17;11.32;;;5.60;99.90;;;;;;4874576;29;20071;-73
2023/01/25 07:04:03;;;;;;;14.82;10.55;;;3.30;99.90;;;;;;4858165;29;20049;-73
2023/01/25 07:06:33;;;;;;;14.73;10.13;;;3.70;99.90;;;;;;4860204;29;20049;-72
2023/01/25 07:09:08;;;;;;;14.15;9.93;;;3.70;99.90;;;;;;4840740;29;20061;-73
2023/01/25 07:11:36;;;;;;;13.75;10.73;;;4.30;99.90;;;;;;4864125;29;20048;-73
2023/01/25 07:14:03;;;;;;;16.45;10.88;;;3.10;99.90;;;;;;4863426;29;20222;-72
2023/01/25 07:16:37;;;;;;;15.05;9.90;;;3.80;99.90;;;;;;4844893;29;20056;-72
2023/01/25 07:19:10;;;;;;;14.80;10.15;;;3.80;99.90;;;;;;4859678;29;20121;-73
2023/01/25 07:21:37;;;;;;;14.57;10.15;;;3.80;99.90;;;;;;4847671;29;20045;-73
2023/01/25 07:24:05;;;;;;;15.35;11.18;;;3.80;99.90;;;;;;4858644;29;20508;-73
2023/01/25 07:26:32;;;;;;;13.93;10.40;;;3.70;99.90;;;;;;4858701;29;20049;-73
2023/01/25 07:29:00;;;;;;;17.25;11.80;;;3.80;99.90;;;;;;4856909;29;20065;-73
2023/01/25 07:31:28;;;;;;;19.27;12.13;;;3.80;99.90;;;;;;4856399;29;20149;-73
2023/01/25 07:33:56;;;;;;;19.48;13.30;;;3.80;99.90;;;;;;4847468;29;20055;-72
2023/01/25 07:36:24;;;;;;;14.52;10.50;;;3.80;99.90;;;;;;4855827;29;20056;-73
2023/01/25 07:38:55;;;;;;;13.35;10.00;;;3.80;99.90;;;;;;4858675;29;20052;-72
2023/01/25 07:41:25;;;;;;;17.13;11.25;;;5.20;99.90;;;;;;4858200;29;20041;-72
2023/01/25 07:43:52;;;;;;;;;;;3.90;99.90;;;;;;4832690;29;20422;-73
2023/01/25 07:46:33;;;;;;;17.63;10.98;;;3.80;99.90;;;;;;4851082;29;19934;-72
2023/01/25 07:49:00;;;;;;;15.52;10.32;;;3.80;99.90;;;;;;4838038;29;20065;-72
2023/01/25 07:51:29;;;;;;;16.98;10.82;;;3.70;99.90;;;;;;4845272;29;20132;-72
2023/01/25 07:54:02;;;;;;;15.98;11.40;;;3.80;99.90;;;;;;4873110;29;20467;-73
2023/01/25 07:56:32;;;;;;;19.70;11.35;;;3.80;99.90;;;;;;4873708;29;20091;-72
2023/01/25 07:59:01;;;;;;;20.63;13.80;;;3.80;99.90;;;;;;4858096;29;20092;-72
2023/01/25 08:01:33;;;;;;;15.30;11.35;;;4.20;99.90;;;;;;4851564;29;20846;-72
2023/01/25 08:04:01;;;;;;;17.55;11.48;;;3.80;99.90;;;;;;4840462;29;20080;-72
2023/01/25 08:06:34;;;;;;;17.65;11.38;;;4.90;99.90;;;;;;4855323;29;20144;-72
2023/01/25 08:09:03;;;;;;;16.67;12.20;;;3.80;99.90;;;;;;4855323;29;20057;-73
2023/01/25 08:11:31;;;;;;;18.42;12.45;;;3.70;99.90;;;;;;4843510;29;20045;-73
2023/01/25 08:14:00;;;;;;;19.27;12.10;;;3.80;99.90;;;;;;4854566;29;20120;-72
2023/01/25 08:16:29;;;;;;;20.67;14.23;;;3.70;99.90;;;;;;4844348;29;20046;-72
2023/01/25 08:18:58;;;;;;;18.60;12.40;;;3.70;99.90;;;;;;4847525;29;20534;-73
2023/01/25 08:21:28;;;;;;;18.30;12.45;;;3.70;99.90;;;;;;4873264;29;20502;-72
2023/01/25 08:23:57;;;;;;;19.13;11.52;;;3.70;99.90;;;;;;4873745;29;20068;-73
2023/01/25 08:26:25;;;;;;;15.98;10.68;;;3.80;99.90;;;;;;4860423;29;20096;-72
2023/01/25 08:28:52;;;;;;;17.98;12.07;;;4.50;99.90;;;;;;4878715;29;20052;-73
2023/01/25 08:31:25;;;;;;;19.35;12.02;;;3.90;99.90;;;;;;4856317;29;20063;-73
2023/01/25 08:33:53;;;;;;;18.90;12.55;;;3.90;99.90;;;;;;4837364;29;20051;-72
2023/01/25 08:36:22;;;;;;;15.52;11.50;;;3.80;99.90;;;;;;4855762;29;20042;-73
2023/01/25 08:38:53;;;;;;;19.58;13.43;;;3.80;99.90;;;;;;4840556;29;20622;-73
2023/01/25 08:41:20;;;;;;;20.20;13.10;;;3.80;99.90;;;;;;4850830;29;20063;-73
2023/01/25 08:43:47;;;;;;;19.13;13.95;;;3.80;99.90;;;;;;4862033;29;20053;-73
2023/01/25 08:46:16;;;;;;;20.27;13.25;;;3.90;99.90;;;;;;4877533;29;20441;-72
2023/01/25 08:48:43;;;;;;;18.58;13.40;;;3.90;99.90;;;;;;4877489;29;20048;-72
2023/01/25 08:51:12;;;;;;;21.45;13.82;;;3.90;99.90;;;;;;4873439;29;20049;-73
2023/01/25 08:53:39;;;;;;;20.95;13.32;;;3.90;99.90;;;;;;4844398;29;20049;-74
2023/01/25 08:56:12;;;;;;;18.35;13.45;;;3.90;99.90;;;;;;4858031;29;20045;-73
2023/01/25 08:58:41;;;;;;;20.48;13.68;;;3.90;99.90;;;;;;4846091;29;20049;-73
2023/01/25 09:01:10;;;;;;;22.25;13.85;;;3.90;99.90;;;;;;4846012;29;20045;-73
2023/01/25 09:03:39;;;;;;;19.85;12.80;;;4.00;99.90;;;;;;4866440;29;20037;-73
2023/01/25 09:06:07;;;;;;;20.43;13.50;;;3.90;99.90;;;;;;4859978;29;20061;-73
2023/01/25 09:08:34;;;;;;;20.73;12.48;;;5.70;99.90;;;;;;4861472;29;20080;-73
2023/01/25 09:11:03;;;;;;;19.70;12.60;;;4.00;99.90;;;;;;4843693;29;20053;-73
2023/01/25 09:13:30;;;;;;;18.60;13.15;;;4.00;99.90;;;;;;4850631;29;20045;-73
2023/01/25 09:16:04;;;;;;;19.77;13.25;;;4.00;99.90;;;;;;4850160;29;20045;-73
2023/01/25 09:18:31;;;;;;;20.05;13.52;;;5.00;99.90;;;;;;4851086;29;20124;-73
2023/01/25 09:21:09;;;;;;;18.13;11.60;;;4.10;99.90;;;;;;4833856;29;20141;-73
2023/01/25 09:23:37;;;;;;;19.05;11.38;;;4.00;99.90;;;;;;4847907;29;20049;-73
2023/01/25 09:26:17;;;;;;;21.30;13.88;;;4.10;99.90;;;;;;4842446;29;20042;-73
2023/01/25 09:28:49;;;;;;;19.05;13.70;;;3.90;99.90;;;;;;4842201;29;20049;-74
2023/01/25 09:31:17;;;;;;;18.58;12.15;;;4.00;99.90;;;;;;4841500;29;20045;-73
2023/01/25 09:34:21;;;;;;;19.95;13.30;;;4.10;99.90;;;;;;4864681;29;20409;-72
2023/01/25 09:36:48;;;;;;;18.45;12.38;;;4.20;99.90;;;;;;4844735;29;20494;-71
2023/01/25 09:39:15;;;;;;;19.25;13.18;;;4.20;99.90;;;;;;4859580;29;20061;-72
2023/01/25 09:42:05;;;;;;;19.60;13.35;;;4.30;99.90;;;;;;4875124;29;20049;-72
2023/01/25 09:44:54;;;;;;;19.58;13.95;;;4.20;99.90;;;;;;4877678;29;20572;-73
2023/01/25 09:47:54;;;;;;;17.25;10.95;;;4.20;99.90;;;;;;4872560;29;20088;-73
2023/01/25 09:50:33;;;;;;;20.20;13.50;;;3.30;99.90;;;;;;4875685;29;20053;-72
2023/01/25 09:53:15;;;;;;;22.67;13.98;;;4.10;99.90;;;;;;4842920;29;20056;-72
2023/01/25 09:55:42;;;;;;;21.63;14.77;;;4.10;99.90;;;;;;4858540;29;20105;-73
2023/01/25 09:58:13;;;;;;;20.83;14.10;;;4.20;99.90;;;;;;4841957;29;20080;-72
2023/01/25 10:00:44;;;;;;;21.52;13.85;;;4.60;99.90;;;;;;4856192;29;20045;-73
2023/01/25 10:03:26;;;;;;;21.83;14.43;;;4.10;99.90;;;;;;4856431;29;20081;-73
2023/01/25 10:05:57;;;;;;;19.38;11.27;;;4.10;99.90;;;;;;4830831;29;20057;-73
2023/01/25 10:08:31;;;;;;;19.00;12.85;;;4.10;99.90;;;;;;4860583;29;20590;-73
2023/01/25 10:11:25;;;;;;;17.23;11.30;;;4.20;99.90;;;;;;4841045;29;20114;-72
2023/01/25 10:13:54;;;;;;;20.10;14.38;;;4.10;99.90;;;;;;4863072;29;20085;-72
2023/01/25 10:16:38;;;;;;;20.70;13.80;;;4.20;99.90;;;;;;4850263;29;20051;-73
2023/01/25 10:19:38;;;;;;;21.08;13.55;;;4.10;99.90;;;;;;4867049;29;20752;-73
2023/01/25 10:22:21;;;;;;;20.63;13.50;;;4.20;99.90;;;;;;4867480;29;20052;-73
2023/01/25 10:25:05;;;;;;;20.08;13.68;;;4.10;99.90;;;;;;4850368;29;20056;-72
2023/01/25 10:27:54;;;;;;;17.70;11.85;;;4.10;99.90;;;;;;4863912;29;20109;-72
2023/01/25 10:30:24;;;;;;;19.83;12.35;;;4.30;99.90;;;;;;4862210;29;20471;-73
2023/01/25 10:32:51;;;;;;;21.38;14.00;;;4.20;99.90;;;;;;4858998;29;20042;-73
2023/01/25 10:35:27;;;;;;;21.42;13.68;;;5.60;99.90;;;;;;4841827;29;20053;-73
2023/01/25 10:38:20;;;;;;;23.60;14.50;;;4.30;99.90;;;;;;4863677;29;20132;-73
2023/01/25 10:41:14;;;;;;;18.52;12.10;;;4.30;99.90;;;;;;4862863;29;20418;-73
2023/01/25 10:43:42;;;;;;;19.27;13.27;;;4.30;99.90;;;;;;4864915;29;20456;-73
2023/01/25 10:46:21;;;;;;;17.75;12.13;;;4.40;99.90;;;;;;4843793;29;20045;-73
2023/01/25 10:48:48;;;;;;;21.33;13.50;;;4.30;99.90;;;;;;4824961;29;20140;-73
2023/01/25 10:51:32;;;;;;;21.77;14.25;;;4.30;99.90;;;;;;4840819;29;20066;-73
2023/01/25 10:54:04;;;;;;;18.35;12.32;;;4.70;99.90;;;;;;4847941;29;20046;-72
2023/01/25 10:56:38;;;;;;;21.13;13.05;;;4.20;99.90;;;;;;4829812;29;20060;-72
2023/01/25 10:59:23;;;;;;;19.00;11.90;;;4.30;99.90;;;;;;4854199;29;20049;-73
2023/01/25 11:01:51;;;;;;;18.38;11.43;;;4.30;99.90;;;;;;4839537;29;20057;-72
2023/01/25 11:04:37;;;;;;;17.00;11.00;;;4.30;99.90;;;;;;4828242;29;20081;-72
2023/01/25 11:07:04;;;;;;;15.52;10.95;;;4.40;99.90;;;;;;4830125;29;20049;-72
2023/01/25 11:09:37;;;;;;;23.75;10.82;;;4.30;99.90;;;;;;4824598;29;20137;-72
2023/01/25 11:12:10;;;;;;;14.65;10.07;;;4.30;99.90;;;;;;4844063;29;20045;-72
2023/01/25 11:14:37;;;;;;;16.02;10.35;;;4.20;99.90;;;;;;4821900;29;20057;-72
2023/01/25 11:17:06;;;;;;;14.98;11.05;;;4.20;99.90;;;;;;4829424;29;20121;-72
2023/01/25 11:19:38;;;;;;;16.35;11.32;;;4.20;99.90;;;;;;4836527;29;20069;-72
2023/01/25 11:22:19;;;;;;;16.83;10.75;;;4.30;99.90;;;;;;4859443;29;20049;-72
2023/01/25 11:24:46;;;;;;;17.08;12.07;;;4.30;99.90;;;;;;4853775;29;20053;-72
2023/01/25 11:27:22;;;;;;;16.48;11.18;;;4.40;99.90;;;;;;4834637;29;20534;-72
2023/01/25 11:30:04;;;;;;;17.42;12.13;;;4.30;99.90;;;;;;4817186;29;20092;-72
2023/01/25 11:32:31;;;;;;;18.02;12.82;;;4.40;99.90;;;;;;4842510;29;20057;-72
2023/01/25 11:34:59;;;;;;;21.30;12.88;;;5.80;99.90;;;;;;4804318;29;20061;-72
2023/01/25 11:37:44;;;;;;;19.05;12.18;;;4.40;99.90;;;;;;4816926;29;20447;-72
2023/01/25 11:40:33;;;;;;;21.98;12.75;;;4.40;99.90;;;;;;4786482;29;20054;-72
2023/01/25 11:43:38;;;;;;;16.45;11.02;;;4.40;99.90;;;;;;4838701;29;20065;-73
2023/01/25 11:46:30;;;;;;;18.13;12.30;;;4.50;99.90;;;;;;4839301;29;20060;-72
2023/01/25 11:49:26;;;;;;;21.23;14.48;;;4.40;99.90;;;;;;4840978;29;20092;-72
2023/01/25 11:52:01;;;;;;;18.58;12.65;;;4.40;99.90;;;;;;4812401;29;20806;-73
2023/01/25 11:54:51;;;;;;;20.88;12.85;;;4.30;99.90;;;;;;4837608;29;20090;-73
2023/01/25 11:57:33;;;;;;;19.10;12.80;;;4.40;99.90;;;;;;4800638;29;20119;-73
2023/01/25 12:00:09;;;;;;;18.98;12.10;;;4.50;99.90;;;;;;4784705;29;20104;-72
2023/01/25 12:03:24;;;;;;;16.65;11.75;;;4.40;99.90;;;;;;4819288;29;20542;-72
2023/01/25 12:06:05;;;;;;;16.70;11.65;;;4.40;99.90;;;;;;4755320;30;20059;-72
2023/01/25 12:08:42;;;;;;;20.33;12.60;;;4.50;99.90;;;;;;4769024;30;20587;-73
2023/01/25 12:11:35;;;;;;;17.80;12.07;;;4.40;99.90;;;;;;4736007;30;20114;-73
2023/01/25 12:14:17;;;;;;;20.27;12.82;;;4.40;99.90;;;;;;4767291;30;20072;-73
2023/01/25 12:17:02;;;;;;;18.63;11.82;;;4.30;99.90;;;;;;4750045;30;20128;-73
2023/01/25 12:20:05;;;;;;;17.60;11.95;;;4.40;99.90;;;;;;4762545;29;20059;-73
2023/01/25 12:22:45;;;;;;;19.58;13.25;;;4.40;99.90;;;;;;4766425;30;20067;-73
2023/01/25 12:25:39;;;;;;;18.90;13.27;;;4.40;99.90;;;;;;4780955;30;20505;-74
2023/01/25 12:28:24;;;;;;;19.52;12.52;;;4.40;99.90;;;;;;4754228;30;20062;-73
2023/01/25 12:31:20;;;;;;;20.00;11.93;;;4.50;99.90;;;;;;4747495;30;20118;-73
2023/01/25 12:34:07;;;;;;;20.48;12.43;;;4.40;99.90;;;;;;4766012;29;20804;-73
2023/01/25 12:36:44;;;;;;;18.77;12.32;;;4.40;99.90;;;;;;4825988;29;20041;-73
2023/01/25 12:39:23;;;;;;;21.25;13.48;;;4.50;99.90;;;;;;4847880;29;20505;-73
2023/01/25 12:42:03;;;;;;;23.65;15.25;;;4.40;99.90;;;;;;4868225;29;20041;-73
2023/01/25 12:44:36;;;;;;;24.63;14.23;;;4.50;99.90;;;;;;4872879;29;20044;-73
2023/01/25 12:47:09;;;;;;;26.02;16.48;;;4.40;99.90;;;;;;4857416;29;20060;-73
2023/01/25 12:49:46;;;;;;;21.98;14.82;;;4.60;99.90;;;;;;4872828;29;20049;-73
2023/01/25 12:52:23;;;;;;;20.92;13.57;;;4.50;99.90;;;;;;4857388;29;20136;-73
2023/01/25 12:54:52;;;;;;;20.50;13.68;;;4.50;99.90;;;;;;4844953;29;20042;-73
2023/01/25 12:57:49;;;;;;;23.83;15.00;;;4.50;99.90;;;;;;4867782;29;20246;-73
2023/01/25 13:00:32;;;;;;;28.75;17.80;;;4.50;99.90;;;;;;4872047;29;20045;-75
2023/01/25 13:03:08;;;;;;;21.38;13.75;;;4.60;99.90;;;;;;4864607;29;20601;-75
2023/01/25 13:05:47;;;;;;;21.70;13.18;;;4.50;99.90;;;;;;4855007;29;20437;-75
2023/01/25 13:08:41;;;;;;;21.77;14.02;;;4.60;99.90;;;;;;4855964;29;20136;-75
2023/01/25 13:11:18;;;;;;;25.35;15.02;;;4.50;99.90;;;;;;4839539;29;20267;-75
2023/01/25 13:13:45;;;;;;;21.05;14.45;;;5.80;99.90;;;;;;4842727;29;20045;-75
2023/01/25 13:16:35;;;;;;;21.27;14.30;;;4.90;99.90;;;;;;4842596;29;20079;-75
2023/01/25 13:19:02;;;;;;;22.08;13.90;;;4.60;99.90;;;;;;4858330;29;20188;-71
2023/01/25 13:21:46;;;;;;;22.67;13.48;;;4.60;99.90;;;;;;4860283;29;20490;-68
2023/01/25 13:24:16;;;;;;;17.75;12.25;;;4.50;99.90;;;;;;4878289;29;20520;-70
2023/01/25 13:26:53;;;;;;;;;;;4.70;99.80;;;;;;4861493;29;20056;-72
2023/01/25 13:29:46;;;;;;;20.23;12.45;;;4.70;99.90;;;;;;4876311;29;19927;-72
2023/01/25 13:32:32;;;;;;;17.52;12.50;;;5.70;99.90;;;;;;4837423;29;20054;-72
2023/01/25 13:35:00;;;;;;;17.63;11.75;;;4.60;99.80;;;;;;4860495;29;20065;-72
2023/01/25 13:37:41;;;;;;;18.30;11.43;;;4.70;99.80;;;;;;4868861;29;20160;-72
2023/01/25 13:40:31;;;;;;;19.55;11.82;;;4.60;99.70;;;;;;4856608;29;20057;-72
2023/01/25 13:42:59;;;;;;;;;;;4.60;99.70;;;;;;4844622;29;20132;-73
2023/01/25 13:45:27;;;;;;;16.38;10.93;;;4.70;99.50;;;;;;4858458;29;19931;-73
2023/01/25 13:48:10;;;;;;;17.00;11.25;;;4.50;99.50;;;;;;4851345;29;20049;-72
2023/01/25 13:50:43;;;;;;;21.00;11.05;;;4.40;99.50;;;;;;4842862;29;20054;-73
2023/01/25 13:53:16;;;;;;;17.05;11.75;;;5.30;99.90;;;;;;4850287;29;20045;-73
2023/01/25 13:55:55;;;;;;;18.42;12.10;;;4.80;99.70;;;;;;4854454;29;20053;-80
2023/01/25 13:58:30;;;;;;;17.77;12.20;;;4.50;99.40;;;;;;4838480;29;20066;-80
2023/01/25 14:01:17;;;;;;;17.67;11.80;;;4.50;99.30;;;;;;4848788;29;20506;-78
2023/01/25 14:03:58;;;;;;;17.98;11.15;;;4.50;99.60;;;;;;4838937;29;20050;-81
2023/01/25 14:06:32;;;;;;;19.13;12.77;;;4.50;99.40;;;;;;4828643;29;20065;-81
2023/01/25 14:09:06;;;;;;;15.63;11.82;;;4.50;99.50;;;;;;4843192;29;20049;-78
2023/01/25 14:11:35;;;;;;;20.50;11.82;;;4.60;99.30;;;;;;4858804;29;20052;-81
2023/01/25 14:14:20;;;;;;;17.63;12.35;;;4.60;99.30;;;;;;4860462;29;20068;-77
2023/01/25 14:17:20;;;;;;;18.08;11.02;;;4.60;99.30;;;;;;4858124;29;20041;-77
2023/01/25 14:19:52;;;;;;;20.48;12.82;;;4.50;99.30;;;;;;4863965;29;20059;-81
2023/01/25 14:22:25;;;;;;;16.95;11.52;;;4.50;99.30;;;;;;4859418;29;20105;-78
2023/01/25 14:25:14;;;;;;;20.35;13.38;;;4.50;99.40;;;;;;4874502;29;20576;-80
2023/01/25 14:28:01;;;;;;;20.50;12.63;;;4.40;99.40;;;;;;4876137;29;20045;-78
2023/01/25 14:30:30;;;;;;;21.45;12.77;;;4.50;99.50;;;;;;4861622;29;20037;-80
2023/01/25 14:33:32;;;;;;;20.02;13.27;;;4.50;99.60;;;;;;4865089;29;20125;-80
2023/01/25 14:36:05;;;;;;;18.98;13.07;;;4.50;99.60;;;;;;4854066;29;20140;-81
2023/01/25 14:38:49;;;;;;;20.23;12.85;;;4.50;99.50;;;;;;4875360;29;20041;-79
2023/01/25 14:41:33;;;;;;;19.17;12.80;;;4.60;99.50;;;;;;4875983;29;20120;-81
2023/01/25 14:44:05;;;;;;;18.52;12.63;;;4.50;99.40;;;;;;4874989;29;20140;-80
2023/01/25 14:46:37;;;;;;;22.90;14.40;;;4.60;99.60;;;;;;4859833;29;20124;-78
2023/01/25 14:49:25;;;;;;;18.13;11.85;;;4.50;99.40;;;;;;4859919;29;20140;-77
2023/01/25 14:52:06;;;;;;;19.85;12.50;;;4.50;99.40;;;;;;4865288;29;20081;-81
2023/01/25 14:54:42;;;;;;;19.85;13.35;;;6.60;99.90;;;;;;4856536;29;20081;-76
2023/01/25 14:57:26;;;;;;;20.30;13.25;;;4.50;99.40;;;;;;4858147;29;20045;-80
2023/01/25 14:59:54;;;;;;;19.65;12.63;;;4.50;99.40;;;;;;4862670;29;20049;-71
2023/01/25 15:02:24;;;;;;;19.55;12.27;;;4.40;99.40;;;;;;4869121;29;20033;-80
2023/01/25 15:05:00;;;;;;;17.95;12.43;;;4.40;99.50;;;;;;4882239;29;20075;-80
2023/01/25 15:07:43;;;;;;;16.40;10.75;;;4.50;99.40;;;;;;4862121;29;20046;-80
2023/01/25 15:10:17;;;;;;;18.30;11.95;;;4.30;99.40;;;;;;4862371;29;20510;-80
2023/01/25 15:13:18;;;;;;;18.65;11.85;;;4.40;99.30;;;;;;4862928;29;20049;-78
2023/01/25 15:15:57;;;;;;;18.33;12.30;;;4.30;99.50;;;;;;4847304;29;20060;-78
2023/01/25 15:18:44;;;;;;;20.67;13.20;;;4.30;99.50;;;;;;4849734;29;20037;-80
2023/01/25 15:21:11;;;;;;;17.63;10.98;;;4.40;99.50;;;;;;4857839;29;20143;-79
2023/01/25 15:23:40;;;;;;;25.27;13.23;;;4.40;99.50;;;;;;4876074;29;20056;-77
2023/01/25 15:26:21;;;;;;;19.48;12.18;;;4.40;99.50;;;;;;4859382;29;20418;-79
2023/01/25 15:28:48;;;;;;;;;;;4.40;99.60;;;;;;4830429;29;20523;-78
2023/01/25 15:31:21;;;;;;;22.10;13.90;;;6.00;99.90;;;;;;4851336;29;19931;-81
2023/01/25 15:33:49;;;;;;;18.52;12.00;;;4.90;99.70;;;;;;4808116;29;20045;-78
2023/01/25 15:36:17;;;;;;;17.73;13.00;;;5.80;99.90;;;;;;4834625;29;20061;-81
2023/01/25 15:38:45;;;;;;;19.35;13.10;;;4.30;99.60;;;;;;4841883;29;20069;-80
2023/01/25 15:41:13;;;;;;;19.55;12.85;;;4.30;99.50;;;;;;4837983;29;20049;-73
2023/01/25 15:43:40;;;;;;;17.50;12.10;;;4.40;99.50;;;;;;4837894;29;20140;-74
2023/01/25 15:46:21;;;;;;;21.90;13.93;;;4.40;99.20;;;;;;4822837;29;20569;-80
2023/01/25 15:48:51;;;;;;;21.13;12.70;;;4.30;99.20;;;;;;4819224;29;20410;-80
2023/01/25 15:51:19;;;;;;;17.70;11.48;;;4.30;99.30;;;;;;4853959;29;20067;-77
2023/01/25 15:53:46;;;;;;;19.33;11.52;;;4.20;99.30;;;;;;4853704;29;20085;-79
2023/01/25 15:56:34;;;;;;;19.13;11.35;;;4.20;99.50;;;;;;4836449;29;20061;-78
2023/01/25 15:59:09;;;;;;;18.17;12.27;;;5.20;99.70;;;;;;4841978;29;20057;-80
2023/01/25 16:01:36;;;;;;;21.00;11.70;;;4.10;99.30;;;;;;4863645;29;20069;-78
2023/01/25 16:04:03;;;;;;;18.90;12.98;;;4.10;99.40;;;;;;4854263;29;20053;-80
2023/01/25 16:06:41;;;;;;;21.75;14.30;;;4.10;99.40;;;;;;4846980;29;20053;-78
2023/01/25 16:09:17;;;;;;;20.30;13.27;;;4.50;99.60;;;;;;4862821;29;20057;-77
2023/01/25 16:11:58;;;;;;;17.25;11.77;;;4.00;99.40;;;;;;4854184;29;20140;-81
2023/01/25 16:14:30;;;;;;;21.00;13.75;;;4.00;99.50;;;;;;4845920;29;20139;-81
2023/01/25 16:17:01;;;;;;;19.65;13.18;;;4.00;99.50;;;;;;4871000;29;20053;-82
2023/01/25 16:19:29;;;;;;;19.15;13.25;;;4.00;99.70;;;;;;4866913;29;20312;-80
2023/01/25 16:21:56;;;;;;;19.08;12.15;;;3.90;99.70;;;;;;4869417;29;20055;-75
2023/01/25 16:24:23;;;;;;;20.45;13.25;;;4.00;99.50;;;;;;4858505;29;20434;-74
2023/01/25 16:26:53;;;;;;;20.55;13.07;;;3.90;99.60;;;;;;4862058;29;20064;-74
2023/01/25 16:29:21;;;;;;;21.60;14.20;;;4.40;99.70;;;;;;4860090;29;20738;-72
2023/01/25 16:31:51;;;;;;;32.00;19.67;;;3.90;99.70;;;;;;4840128;29;20137;-72
2023/01/25 16:34:21;;;;;;;26.33;16.83;;;3.90;99.60;;;;;;4834420;29;20124;-72
2023/01/25 16:36:49;;;;;;;25.73;16.33;;;3.90;99.70;;;;;;4837615;29;20049;-72
2023/01/25 16:39:25;;;;;;;22.75;16.13;;;5.30;99.90;;;;;;4842065;29;20045;-72
2023/01/25 16:41:53;;;;;;;21.75;12.68;;;4.00;99.70;;;;;;4842847;29;20049;-72
2023/01/25 16:44:21;;;;;;;22.75;13.82;;;4.00;99.70;;;;;;4850994;29;20054;-72
2023/01/25 16:46:49;;;;;;;18.83;12.32;;;4.10;99.70;;;;;;4857035;29;20515;-72
2023/01/25 16:49:25;;;;;;;23.55;15.05;;;3.90;99.70;;;;;;4843342;29;20054;-71
2023/01/25 16:51:54;;;;;;;21.40;13.05;;;3.90;99.70;;;;;;4850928;29;20055;-73
2023/01/25 16:54:22;;;;;;;25.08;19.30;;;3.90;99.70;;;;;;4866165;29;20408;-73
2023/01/25 16:56:50;;;;;;;25.27;21.75;;;4.00;99.70;;;;;;4841548;29;20455;-73
2023/01/25 16:59:17;;;;;;;23.85;17.45;;;3.90;99.70;;;;;;4857032;29;20080;-72
2023/01/25 17:01:45;;;;;;;25.23;17.42;;;4.00;99.60;;;;;;4854342;29;20116;-72
2023/01/25 17:04:13;;;;;;;21.40;14.23;;;3.90;99.70;;;;;;4868579;29;20060;-73
2023/01/25 17:06:43;;;;;;;21.05;14.93;;;3.90;99.90;;;;;;4860068;29;20106;-73
2023/01/25 17:09:18;;;;;;;19.50;13.05;;;3.90;99.70;;;;;;4842769;29;20050;-72
2023/01/25 17:11:51;;;;;;;20.50;13.98;;;3.90;99.80;;;;;;4867383;29;20080;-73
2023/01/25 17:14:19;;;;;;;19.75;13.38;;;3.90;99.70;;;;;;4863527;29;20057;-73
2023/01/25 17:16:49;;;;;;;19.30;12.48;;;4.00;99.70;;;;;;4849710;29;20550;-73
2023/01/25 17:19:16;;;;;;;26.38;15.70;;;5.40;99.90;;;;;;4863666;29;20044;-73
2023/01/25 17:21:44;;;;;;;29.70;20.30;;;4.20;99.80;;;;;;4873534;29;20643;-73
2023/01/25 17:24:16;;;;;;;32.65;28.25;;;5.20;99.90;;;;;;4860308;29;20482;-73
2023/01/25 17:26:43;;;;;;;35.55;31.85;;;4.00;99.90;;;;;;4844136;29;20057;-73
2023/01/25 17:29:12;;;;;;;30.77;24.45;;;4.40;99.90;;;;;;4860653;29;20474;-72
2023/01/25 17:31:40;;;;;;;33.33;29.33;;;3.90;99.70;;;;;;4868901;29;20045;-73
2023/01/25 17:34:10;;;;;;;29.23;23.77;;;4.20;99.80;;;;;;4842208;29;20519;-73
2023/01/25 17:36:37;;;;;;;21.40;16.38;;;6.30;99.90;;;;;;4841894;29;20153;-73
2023/01/25 17:39:06;;;;;;;19.27;13.00;;;3.90;99.90;;;;;;4857395;29;20080;-73
2023/01/25 17:41:34;;;;;;;22.37;14.13;;;4.00;99.80;;;;;;4864877;29;20080;-73
2023/01/25 17:44:01;;;;;;;23.60;15.18;;;5.50;99.90;;;;;;4860762;29;20607;-73
2023/01/25 17:46:33;;;;;;;19.63;13.10;;;4.00;99.90;;;;;;4860385;29;20056;-73
2023/01/25 17:49:02;;;;;;;24.95;15.02;;;4.00;99.80;;;;;;4875792;29;20049;-73
2023/01/25 17:51:31;;;;;;;34.28;25.63;;;4.60;99.90;;;;;;4869848;29;20414;-73
2023/01/25 17:53:59;;;;;;;34.97;26.95;;;3.90;99.80;;;;;;4841919;29;20084;-72
2023/01/25 17:56:26;;;;;;;30.27;23.75;;;5.00;99.90;;;;;;4841653;29;20050;-72
2023/01/25 17:58:53;;;;;;;23.42;15.93;;;3.80;99.70;;;;;;4859161;29;20105;-72
2023/01/25 18:01:25;;;;;;;22.08;13.80;;;3.80;99.70;;;;;;4860798;29;20528;-72
2023/01/25 18:03:53;;;;;;;23.55;14.85;;;3.90;99.90;;;;;;4859779;29;20584;-73
2023/01/25 18:06:30;;;;;;;23.42;15.68;;;3.90;99.80;;;;;;4875441;29;20449;-72
2023/01/25 18:08:59;;;;;;;25.40;15.80;;;3.80;99.90;;;;;;4859997;29;20053;-73
2023/01/25 18:11:29;;;;;;;23.08;13.80;;;3.90;99.90;;;;;;4870472;29;20615;-72
2023/01/25 18:14:03;;;;;;;22.98;15.20;;;3.90;99.90;;;;;;4856445;29;20085;-73